createdAt,value
2022-10-16T00:01:29.552Z,58.20
2022-10-16T00:03:58.857Z,58.10
2022-10-16T00:06:28.816Z,58.20
2022-10-16T00:08:56.748Z,58.20
2022-10-16T00:11:27.005Z,58.20
2022-10-16T00:14:01.310Z,58.20
2022-10-16T00:16:30.120Z,58.00
2022-10-16T00:18:59.058Z,58.10
2022-10-16T00:21:29.038Z,58.10
2022-10-16T00:24:00.452Z,58.10
2022-10-16T00:26:30.337Z,58.10
2022-10-16T00:28:58.524Z,58.10
2022-10-16T00:31:28.515Z,58.20
2022-10-16T00:33:56.461Z,58.10
2022-10-16T00:36:27.238Z,58.00
2022-10-16T00:38:57.045Z,58.00
2022-10-16T00:41:26.409Z,58.10
2022-10-16T00:43:56.440Z,58.10
2022-10-16T00:46:28.576Z,58.10
2022-10-16T00:49:01.475Z,58.10
2022-10-16T00:51:34.735Z,58.00
2022-10-16T00:54:04.383Z,58.10
2022-10-16T00:56:34.400Z,58.20
2022-10-16T00:59:05.968Z,58.20
2022-10-16T01:01:35.539Z,58.10
2022-10-16T01:04:03.664Z,58.20
2022-10-16T01:06:41.335Z,58.10
2022-10-16T01:09:19.603Z,58.10
2022-10-16T01:11:56.851Z,58.30
2022-10-16T01:14:31.030Z,58.10
2022-10-16T01:17:06.865Z,58.70
2022-10-16T01:19:52.189Z,58.10
2022-10-16T01:22:26.324Z,58.10
2022-10-16T01:24:57.583Z,58.10
2022-10-16T01:27:30.055Z,58.10
2022-10-16T01:30:03.864Z,58.10
2022-10-16T01:32:37.410Z,58.10
2022-10-16T01:35:11.736Z,58.00
2022-10-16T01:37:43.700Z,58.10
2022-10-16T01:40:14.906Z,58.10
2022-10-16T01:42:48.878Z,58.00
2022-10-16T01:45:20.340Z,58.00
2022-10-16T01:47:50.223Z,58.00
2022-10-16T01:50:21.087Z,58.00
2022-10-16T01:52:53.074Z,58.00
2022-10-16T01:55:26.763Z,58.10
2022-10-16T01:57:58.001Z,58.00
2022-10-16T02:00:26.899Z,58.00
2022-10-16T02:02:56.938Z,58.10
2022-10-16T02:05:30.392Z,58.10
2022-10-16T02:08:00.509Z,58.10
2022-10-16T02:10:32.923Z,58.10
2022-10-16T02:13:04.434Z,58.10
2022-10-16T02:15:32.783Z,58.10
2022-10-16T02:18:01.106Z,58.00
2022-10-16T02:20:31.982Z,58.00
2022-10-16T02:23:01.688Z,58.00
2022-10-16T02:25:32.747Z,58.00
2022-10-16T02:28:08.477Z,58.00
2022-10-16T02:30:41.897Z,57.90
2022-10-16T02:33:15.657Z,57.90
2022-10-16T02:35:45.906Z,57.90
2022-10-16T02:38:15.112Z,57.90
2022-10-16T02:40:43.748Z,57.90
2022-10-16T02:43:13.590Z,57.90
2022-10-16T02:45:42.074Z,57.90
2022-10-16T02:48:10.436Z,57.90
2022-10-16T02:50:38.630Z,57.90
2022-10-16T02:53:06.845Z,57.90
2022-10-16T02:55:35.038Z,58.00
2022-10-16T02:58:03.134Z,57.90
2022-10-16T03:00:32.598Z,58.50
2022-10-16T03:03:00.707Z,57.90
2022-10-16T03:05:28.809Z,57.90
2022-10-16T03:07:56.948Z,57.80
2022-10-16T03:10:25.124Z,57.80
2022-10-16T03:12:53.245Z,57.80
2022-10-16T03:15:21.387Z,57.90
2022-10-16T03:17:50.861Z,57.80
2022-10-16T03:20:19.110Z,57.80
2022-10-16T03:22:47.224Z,57.90
2022-10-16T03:25:15.480Z,57.80
2022-10-16T03:27:43.565Z,57.70
2022-10-16T03:30:12.489Z,57.80
2022-10-16T03:32:40.591Z,57.70
2022-10-16T03:35:10.572Z,57.70
2022-10-16T03:37:38.548Z,57.80
2022-10-16T03:40:07.543Z,57.70
2022-10-16T03:42:35.617Z,57.70
2022-10-16T03:45:03.722Z,57.70
2022-10-16T03:47:34.098Z,57.70
2022-10-16T03:50:02.467Z,57.70
2022-10-16T03:52:33.202Z,57.80
2022-10-16T03:55:01.386Z,57.70
2022-10-16T03:57:29.742Z,57.60
2022-10-16T03:59:58.163Z,57.60
2022-10-16T04:02:26.250Z,57.70
2022-10-16T04:04:54.530Z,57.70
2022-10-16T04:07:22.818Z,57.60
2022-10-16T04:09:53.202Z,57.70
2022-10-16T04:12:21.309Z,57.70
2022-10-16T04:14:49.458Z,57.70
2022-10-16T04:17:17.508Z,57.70
2022-10-16T04:19:45.593Z,57.60
2022-10-16T04:22:13.728Z,57.60
2022-10-16T04:24:42.430Z,57.60
2022-10-16T04:27:11.893Z,57.60
2022-10-16T04:29:39.989Z,57.60
2022-10-16T04:32:09.801Z,57.60
2022-10-16T04:34:39.120Z,58.10
2022-10-16T04:37:07.257Z,57.70
2022-10-16T04:39:35.471Z,57.70
2022-10-16T04:42:03.685Z,57.90
2022-10-16T04:44:33.165Z,58.20
2022-10-16T04:47:01.240Z,58.70
2022-10-16T04:49:29.361Z,58.90
2022-10-16T04:51:57.581Z,58.90
2022-10-16T04:54:25.616Z,58.90
2022-10-16T04:56:53.704Z,60.00
2022-10-16T04:59:22.214Z,59.60
2022-10-16T05:01:51.752Z,59.10
2022-10-16T05:04:19.790Z,59.50
2022-10-16T05:06:47.984Z,59.30
2022-10-16T05:09:16.059Z,59.30
2022-10-16T05:11:44.182Z,59.30
2022-10-16T05:14:12.371Z,59.40
2022-10-16T05:16:40.526Z,59.10
2022-10-16T05:19:39.834Z,58.60
2022-10-16T05:21:58.446Z,57.60
2022-10-16T05:24:26.560Z,58.10
2022-10-16T05:26:54.942Z,58.90
2022-10-16T05:29:23.277Z,59.30
2022-10-16T05:31:53.758Z,59.30
2022-10-16T05:34:23.522Z,59.40
2022-10-16T05:36:51.665Z,59.50
2022-10-16T05:39:19.966Z,59.20
2022-10-16T05:41:48.332Z,59.10
2022-10-16T05:44:16.631Z,59.20
2022-10-16T05:46:44.703Z,59.30
2022-10-16T05:49:12.759Z,59.20
2022-10-16T05:51:42.800Z,59.20
2022-10-16T05:54:11.170Z,59.30
2022-10-16T05:56:39.361Z,59.40
2022-10-16T05:59:07.860Z,59.40
2022-10-16T06:01:36.355Z,59.70
2022-10-16T06:04:04.860Z,59.60
2022-10-16T06:06:33.054Z,59.70
2022-10-16T06:09:02.571Z,59.30
2022-10-16T06:11:33.327Z,59.80
2022-10-16T06:14:07.551Z,59.60
2022-10-16T06:16:36.333Z,59.50
2022-10-16T06:19:07.396Z,58.80
2022-10-16T06:21:35.937Z,58.40
2022-10-16T06:24:05.684Z,58.60
2022-10-16T06:26:34.191Z,58.30
2022-10-16T06:29:02.936Z,58.10
2022-10-16T06:31:34.509Z,58.50
2022-10-16T06:34:05.742Z,58.40
2022-10-16T06:36:34.270Z,58.50
2022-10-16T06:39:02.347Z,58.40
2022-10-16T06:41:32.992Z,58.40
2022-10-16T06:44:01.164Z,58.10
2022-10-16T06:46:29.420Z,58.00
2022-10-16T06:48:57.520Z,57.80
2022-10-16T06:51:26.455Z,57.80
2022-10-16T06:54:04.976Z,58.00
2022-10-16T06:56:39.386Z,58.10
2022-10-16T06:59:07.621Z,58.10
2022-10-16T07:01:37.391Z,58.00
2022-10-16T07:04:05.517Z,58.10
2022-10-16T07:06:35.442Z,58.00
2022-10-16T07:09:05.011Z,58.00
2022-10-16T07:11:34.909Z,58.10
2022-10-16T07:14:02.773Z,57.90
2022-10-16T07:16:32.412Z,57.50
2022-10-16T07:19:02.330Z,57.10
2022-10-16T07:21:31.201Z,56.90
2022-10-16T07:24:02.371Z,56.60
2022-10-16T07:26:32.300Z,57.10
2022-10-16T07:29:02.011Z,57.20
2022-10-16T07:31:30.253Z,57.10
2022-10-16T07:34:00.604Z,57.10
2022-10-16T07:36:29.018Z,57.40
2022-10-16T07:38:59.829Z,56.90
2022-10-16T07:41:29.377Z,56.60
2022-10-16T07:44:01.023Z,56.90
2022-10-16T07:46:31.089Z,56.50
2022-10-16T07:48:58.984Z,55.70
2022-10-16T07:51:28.209Z,54.80
2022-10-16T07:53:56.391Z,54.90
2022-10-16T07:56:24.966Z,54.10
2022-10-16T07:58:53.931Z,54.10
2022-10-16T08:01:22.355Z,54.10
2022-10-16T08:03:53.206Z,54.30
2022-10-16T08:06:26.766Z,54.60
2022-10-16T08:08:56.500Z,55.10
2022-10-16T08:11:25.257Z,54.90
2022-10-16T08:13:53.406Z,55.20
2022-10-16T08:16:21.807Z,55.50
2022-10-16T08:18:52.430Z,56.70
2022-10-16T08:21:22.688Z,55.80
2022-10-16T08:23:54.831Z,55.80
2022-10-16T08:26:27.263Z,55.60
2022-10-16T08:28:56.144Z,54.50
2022-10-16T08:31:24.509Z,55.20
2022-10-16T08:33:53.944Z,53.40
2022-10-16T08:36:22.240Z,51.10
2022-10-16T08:38:51.712Z,51.00
2022-10-16T08:41:50.976Z,50.80
2022-10-16T08:44:38.026Z,49.90
2022-10-16T08:47:15.277Z,48.40
2022-10-16T08:49:54.716Z,48.70
2022-10-16T08:52:22.847Z,48.00
2022-10-16T08:54:59.038Z,46.80
2022-10-16T08:57:28.557Z,46.60
2022-10-16T09:00:01.683Z,46.80
2022-10-16T09:02:35.198Z,45.70
2022-10-16T09:05:33.877Z,45.30
2022-10-16T09:08:13.185Z,44.70
2022-10-16T09:10:52.188Z,44.70
2022-10-16T09:13:28.383Z,44.10
2022-10-16T09:16:03.490Z,43.10
2022-10-16T09:18:39.047Z,42.90
2022-10-16T09:21:16.395Z,42.20
2022-10-16T09:23:44.559Z,41.10
2022-10-16T09:26:15.515Z,39.70
2022-10-16T09:28:44.040Z,39.60
2022-10-16T09:31:19.065Z,39.60
2022-10-16T09:33:52.546Z,39.40
2022-10-16T09:36:24.012Z,38.90
2022-10-16T09:38:54.898Z,38.90
2022-10-16T09:41:26.236Z,38.10
2022-10-16T09:43:57.861Z,37.30
2022-10-16T09:46:30.713Z,36.90
2022-10-16T09:49:01.419Z,36.40
2022-10-16T09:51:33.088Z,36.20
2022-10-16T09:54:03.388Z,35.80
2022-10-16T09:56:34.536Z,35.80
2022-10-16T09:59:05.560Z,34.50
2022-10-16T10:01:39.614Z,34.40
2022-10-16T10:04:08.731Z,34.10
2022-10-16T10:06:42.981Z,33.70
2022-10-16T10:09:21.210Z,33.30
2022-10-16T10:11:55.239Z,32.80
2022-10-16T10:14:37.292Z,32.60
2022-10-16T10:17:14.058Z,32.30
2022-10-16T10:19:44.434Z,31.80
2022-10-16T10:22:27.354Z,31.00
2022-10-16T10:25:01.441Z,30.80
2022-10-16T10:27:41.550Z,30.60
2022-10-16T10:30:20.458Z,30.60
2022-10-16T10:33:04.119Z,30.00
2022-10-16T10:35:41.014Z,28.90
2022-10-16T10:38:27.141Z,28.90
2022-10-16T10:41:07.789Z,29.00
2022-10-16T10:43:47.242Z,29.00
2022-10-16T10:46:24.647Z,28.80
2022-10-16T10:49:07.614Z,29.10
2022-10-16T10:51:44.749Z,30.00
2022-10-16T10:54:22.900Z,29.40
2022-10-16T10:56:59.581Z,29.00
2022-10-16T10:59:57.474Z,27.80
2022-10-16T11:02:33.882Z,28.90
2022-10-16T11:05:25.299Z,28.60
2022-10-16T11:07:59.356Z,28.40
2022-10-16T11:10:36.237Z,27.90
2022-10-16T11:13:18.230Z,27.80
2022-10-16T11:18:28.561Z,27.50
2022-10-16T11:21:00.811Z,27.50
2022-10-16T11:23:32.909Z,27.60
2022-10-16T11:26:08.352Z,27.50
2022-10-16T11:28:42.206Z,27.50
2022-10-16T11:31:16.169Z,27.50
2022-10-16T11:33:49.468Z,27.60
2022-10-16T11:36:22.762Z,27.70
2022-10-16T11:38:57.424Z,26.80
2022-10-16T11:41:34.146Z,27.60
2022-10-16T11:44:16.566Z,28.20
2022-10-16T11:47:08.815Z,28.60
2022-10-16T11:49:43.987Z,28.50
2022-10-16T11:52:19.379Z,28.20
2022-10-16T11:54:52.652Z,28.10
2022-10-16T11:57:26.238Z,28.10
2022-10-16T11:59:59.877Z,28.10
2022-10-16T12:02:46.541Z,28.00
2022-10-16T12:05:24.869Z,28.10
2022-10-16T12:08:03.887Z,28.00
2022-10-16T12:13:37.262Z,28.20
2022-10-16T12:16:22.518Z,28.20
2022-10-16T12:18:51.521Z,28.20
2022-10-16T12:21:20.360Z,28.30
2022-10-16T12:23:53.246Z,28.20
2022-10-16T12:26:28.859Z,28.40
2022-10-16T12:29:17.010Z,28.40
2022-10-16T12:31:54.809Z,28.40
2022-10-16T12:34:30.454Z,28.50
2022-10-16T12:37:11.497Z,28.50
2022-10-16T12:39:39.860Z,28.20
2022-10-16T12:42:25.444Z,28.90
2022-10-16T12:44:55.942Z,29.00
2022-10-16T12:47:25.785Z,28.90
2022-10-16T12:49:55.918Z,29.10
2022-10-16T12:52:30.147Z,29.10
2022-10-16T12:55:01.827Z,29.10
2022-10-16T12:57:43.517Z,29.30
2022-10-16T13:00:23.134Z,29.40
2022-10-16T13:03:10.333Z,29.50
2022-10-16T13:05:53.486Z,29.50
2022-10-16T13:08:35.444Z,29.50
2022-10-16T13:11:10.360Z,29.70
2022-10-16T13:14:07.574Z,29.80
2022-10-16T13:16:47.464Z,29.80
2022-10-16T13:19:26.883Z,29.90
2022-10-16T13:22:03.547Z,30.00
2022-10-16T13:24:49.233Z,29.80
2022-10-16T13:27:28.004Z,30.00
2022-10-16T13:30:04.745Z,30.00
2022-10-16T13:32:34.261Z,30.00
2022-10-16T13:35:03.122Z,29.70
2022-10-16T13:37:31.193Z,29.60
2022-10-16T13:40:19.933Z,30.00
2022-10-16T13:42:48.033Z,30.00
2022-10-16T13:45:23.515Z,30.60
2022-10-16T13:48:03.242Z,31.50
2022-10-16T13:50:31.377Z,31.00
2022-10-16T13:53:06.931Z,31.40
2022-10-16T13:55:35.593Z,30.00
2022-10-16T13:58:12.965Z,30.20
2022-10-16T14:00:41.783Z,30.00
2022-10-16T14:03:16.846Z,29.70
2022-10-16T14:05:51.178Z,29.10
2022-10-16T14:08:19.522Z,29.10
2022-10-16T14:10:51.556Z,28.90
2022-10-16T14:13:23.749Z,28.70
2022-10-16T14:15:55.256Z,28.70
2022-10-16T14:18:29.833Z,28.60
2022-10-16T14:21:06.648Z,28.50
2022-10-16T14:23:38.341Z,28.40
2022-10-16T14:26:25.556Z,28.40
2022-10-16T14:29:12.645Z,28.40
2022-10-16T14:31:40.849Z,28.00
2022-10-16T14:34:23.549Z,28.40
2022-10-16T14:36:53.129Z,28.60
2022-10-16T14:39:23.689Z,28.50
2022-10-16T14:41:53.496Z,28.00
2022-10-16T14:44:25.641Z,28.10
2022-10-16T14:46:53.725Z,29.10
2022-10-16T14:49:23.933Z,28.90
2022-10-16T14:51:53.636Z,29.90
2022-10-16T14:54:21.821Z,30.00
2022-10-16T14:56:51.745Z,29.60
2022-10-16T14:59:24.273Z,29.80
2022-10-16T15:01:52.535Z,29.70
2022-10-16T15:04:20.600Z,29.70
2022-10-16T15:06:48.698Z,29.20
2022-10-16T15:09:18.304Z,29.50
2022-10-16T15:11:47.339Z,29.30
2022-10-16T15:16:48.621Z,29.80
2022-10-16T15:19:16.693Z,30.00
2022-10-16T15:21:45.437Z,30.40
2022-10-16T15:24:17.872Z,30.70
2022-10-16T15:26:50.872Z,31.10
2022-10-16T15:29:18.980Z,27.90
2022-10-16T15:31:48.580Z,27.30
2022-10-16T15:34:17.205Z,27.90
2022-10-16T15:36:45.280Z,28.70
2022-10-16T15:39:17.026Z,29.30
2022-10-16T15:41:48.899Z,29.50
2022-10-16T15:44:18.533Z,30.00
2022-10-16T15:46:46.612Z,30.60
2022-10-16T15:49:14.956Z,30.60
2022-10-16T15:51:43.815Z,31.10
2022-10-16T15:54:12.132Z,31.30
2022-10-16T15:56:40.197Z,32.20
2022-10-16T15:59:08.469Z,34.10
2022-10-16T16:01:38.298Z,32.60
2022-10-16T16:04:15.416Z,33.10
2022-10-16T16:06:53.971Z,33.60
2022-10-16T16:09:22.020Z,34.10
2022-10-16T16:11:52.243Z,34.20
2022-10-16T16:14:20.340Z,34.50
2022-10-16T16:16:50.015Z,34.90
2022-10-16T16:19:21.842Z,35.20
2022-10-16T16:21:50.273Z,35.60
2022-10-16T16:24:18.538Z,35.90
2022-10-16T16:26:46.637Z,36.20
2022-10-16T16:29:16.273Z,36.40
2022-10-16T16:31:45.166Z,36.80
2022-10-16T16:34:14.790Z,37.40
2022-10-16T16:36:43.009Z,37.40
2022-10-16T16:39:11.639Z,37.10
2022-10-16T16:41:39.692Z,36.90
2022-10-16T16:44:10.471Z,37.10
2022-10-16T16:46:40.458Z,37.70
2022-10-16T16:49:08.850Z,38.10
2022-10-16T16:51:40.529Z,38.20
2022-10-16T16:54:09.642Z,38.20
2022-10-16T16:56:38.193Z,38.50
2022-10-16T16:59:06.431Z,38.80
2022-10-16T17:01:34.478Z,38.40
2022-10-16T17:04:03.329Z,38.50
2022-10-16T17:06:31.646Z,38.40
2022-10-16T17:09:03.642Z,38.40
2022-10-16T17:11:32.484Z,38.60
2022-10-16T17:14:01.635Z,38.70
2022-10-16T17:16:31.857Z,39.10
2022-10-16T17:19:02.340Z,39.40
2022-10-16T17:21:32.942Z,39.50
2022-10-16T17:24:02.908Z,39.80
2022-10-16T17:26:31.603Z,40.20
2022-10-16T17:29:01.539Z,40.10
2022-10-16T17:31:32.016Z,40.30
2022-10-16T17:34:01.086Z,40.60
2022-10-16T17:36:31.526Z,40.90
2022-10-16T17:39:01.743Z,44.60
2022-10-16T17:41:31.466Z,46.40
2022-10-16T17:43:59.739Z,47.70
2022-10-16T17:46:28.677Z,48.90
2022-10-16T17:48:57.115Z,50.00
2022-10-16T17:51:27.952Z,50.70
2022-10-16T17:53:58.709Z,51.90
2022-10-16T17:56:27.774Z,53.00
2022-10-16T17:58:59.893Z,54.20
2022-10-16T18:01:29.771Z,55.00
2022-10-16T18:03:59.943Z,56.30
2022-10-16T18:06:29.088Z,57.60
2022-10-16T18:08:59.154Z,58.50
2022-10-16T18:11:28.326Z,59.70
2022-10-16T18:13:58.760Z,60.70
2022-10-16T18:16:28.222Z,61.80
2022-10-16T18:18:58.099Z,62.90
2022-10-16T18:21:28.317Z,63.80
2022-10-16T18:23:56.899Z,65.00
2022-10-16T18:26:25.937Z,66.00
2022-10-16T18:28:55.161Z,67.10
2022-10-16T18:31:26.232Z,67.90
2022-10-16T18:33:55.649Z,69.00
2022-10-16T18:36:26.720Z,69.90
2022-10-16T18:38:55.428Z,69.10
2022-10-16T18:41:24.043Z,68.30
2022-10-16T18:43:52.194Z,55.10
2022-10-16T18:46:22.023Z,50.00
2022-10-16T18:48:52.322Z,50.10
2022-10-16T18:51:27.386Z,49.50
2022-10-16T18:53:57.042Z,49.30
2022-10-16T18:56:25.424Z,48.50
2022-10-16T18:58:54.377Z,48.30
2022-10-16T19:01:24.665Z,48.20
2022-10-16T19:03:58.841Z,48.70
2022-10-16T19:06:28.008Z,47.90
2022-10-16T19:08:56.886Z,47.80
2022-10-16T19:11:26.665Z,47.70
2022-10-16T19:13:55.708Z,47.70
2022-10-16T19:16:26.284Z,47.90
2022-10-16T19:18:57.726Z,47.40
2022-10-16T19:21:27.463Z,47.30
2022-10-16T19:23:56.561Z,47.80
2022-10-16T19:26:26.213Z,47.90
2022-10-16T19:28:55.915Z,47.90
2022-10-16T19:31:24.712Z,48.10
2022-10-16T19:33:53.766Z,48.50
2022-10-16T19:36:25.784Z,48.80
2022-10-16T19:38:55.529Z,48.90
2022-10-16T19:41:25.366Z,48.90
2022-10-16T19:43:54.073Z,49.20
2022-10-16T19:46:24.422Z,49.20
2022-10-16T19:48:56.277Z,49.30
2022-10-16T19:51:26.521Z,49.40
2022-10-16T19:53:56.976Z,49.70
2022-10-16T19:56:26.839Z,49.70
2022-10-16T19:58:55.380Z,49.80
2022-10-16T20:01:24.824Z,50.00
2022-10-16T20:03:53.288Z,50.20
2022-10-16T20:06:22.256Z,50.40
2022-10-16T20:08:53.444Z,51.10
2022-10-16T20:11:23.877Z,51.90
2022-10-16T20:13:52.641Z,52.20
2022-10-16T20:16:21.300Z,52.40
2022-10-16T20:18:50.992Z,52.90
2022-10-16T20:21:21.025Z,53.50
2022-10-16T20:23:50.970Z,53.80
2022-10-16T20:26:22.270Z,54.50
2022-10-16T20:28:50.720Z,54.90
2022-10-16T20:31:22.733Z,54.40
2022-10-16T20:33:51.363Z,53.70
2022-10-16T20:36:20.857Z,53.30
2022-10-16T20:38:49.066Z,52.90
2022-10-16T20:41:18.624Z,52.50
2022-10-16T20:43:50.083Z,52.20
2022-10-16T20:46:20.383Z,51.90
2022-10-16T20:48:48.551Z,51.70
2022-10-16T20:51:18.975Z,51.60
2022-10-16T20:53:48.404Z,51.50
2022-10-16T20:56:17.577Z,51.30
2022-10-16T20:58:47.508Z,51.30
2022-10-16T21:01:17.055Z,51.10
2022-10-16T21:03:46.006Z,51.10
2022-10-16T21:06:14.081Z,51.00
2022-10-16T21:08:44.341Z,50.90
2022-10-16T21:11:13.723Z,50.90
2022-10-16T21:13:42.476Z,50.80
2022-10-16T21:16:13.363Z,50.60
2022-10-16T21:18:44.600Z,50.60
2022-10-16T21:21:21.073Z,50.50
2022-10-16T21:23:49.785Z,50.50
2022-10-16T21:26:18.929Z,50.40
2022-10-16T21:28:47.178Z,50.30
2022-10-16T21:31:18.995Z,50.30
2022-10-16T21:33:47.782Z,50.20
2022-10-16T21:36:17.943Z,50.30
2022-10-16T21:41:21.976Z,50.20
2022-10-16T21:43:51.067Z,50.20
2022-10-16T21:46:23.066Z,50.10
2022-10-16T21:48:53.913Z,50.10
2022-10-16T21:51:22.000Z,50.00
2022-10-16T21:53:50.093Z,49.50
2022-10-16T21:56:19.296Z,49.50
2022-10-16T21:58:47.601Z,49.60
2022-10-16T22:01:17.614Z,49.70
2022-10-16T22:03:47.932Z,49.50
2022-10-16T22:06:18.263Z,49.50
2022-10-16T22:08:47.864Z,49.40
2022-10-16T22:11:22.192Z,49.50
2022-10-16T22:13:54.041Z,49.30
2022-10-16T22:16:26.142Z,49.40
2022-10-16T22:18:57.223Z,49.30
2022-10-16T22:21:25.835Z,49.40
2022-10-16T22:23:54.140Z,49.30
2022-10-16T22:26:22.693Z,49.20
2022-10-16T22:28:50.876Z,49.20
2022-10-16T22:31:19.212Z,49.10
2022-10-16T22:33:47.275Z,49.20
2022-10-16T22:36:16.881Z,49.20
2022-10-16T22:38:44.948Z,49.10
2022-10-16T22:41:14.725Z,49.20
2022-10-16T22:43:44.191Z,49.20
2022-10-16T22:46:14.547Z,49.30
2022-10-16T22:48:42.974Z,49.30
2022-10-16T22:51:16.545Z,49.20
2022-10-16T22:53:47.976Z,49.20
2022-10-16T22:56:17.718Z,49.30
2022-10-16T22:58:46.233Z,49.20
2022-10-16T23:01:16.476Z,49.30
2022-10-16T23:03:44.755Z,49.20
2022-10-16T23:06:12.849Z,49.20
2022-10-16T23:08:41.049Z,49.30
2022-10-16T23:11:12.475Z,49.30
2022-10-16T23:13:45.055Z,49.40
2022-10-16T23:16:15.144Z,49.40
2022-10-16T23:18:43.964Z,49.30
2022-10-16T23:21:14.971Z,49.30
2022-10-16T23:23:44.502Z,49.30
2022-10-16T23:26:16.375Z,49.40
2022-10-16T23:28:44.786Z,49.40
2022-10-16T23:31:14.313Z,49.40
2022-10-16T23:33:42.819Z,49.40
2022-10-16T23:36:16.196Z,49.30
2022-10-16T23:38:44.473Z,49.40
2022-10-16T23:41:14.799Z,49.40
2022-10-16T23:43:43.203Z,49.50
2022-10-16T23:46:12.675Z,49.40
2022-10-16T23:48:41.340Z,49.40
2022-10-16T23:51:10.078Z,49.40
2022-10-16T23:53:38.773Z,49.40
2022-10-16T23:56:07.268Z,49.50
2022-10-16T23:58:37.191Z,49.40
